sensor_id;sensor_type;location;lat;lon;timestamp;pressure;altitude;pressure_sealevel;temperature;humidity
51468;BME280;37545;45.302;-122.946;2024-02-16T00:00:13;101016.97;;;9.62;100.00
51468;BME280;37545;45.302;-122.946;2024-02-16T00:02:42;101017.69;;;9.58;100.00
51468;BME280;37545;45.302;-122.946;2024-02-16T00:05:12;101014.22;;;9.57;100.00
51468;BME280;37545;45.302;-122.946;2024-02-16T00:07:44;101021.31;;;9.63;100.00
51468;BME280;37545;45.302;-122.946;2024-02-16T00:10:12;101010.88;;;9.60;100.00
51468;BME280;37545;45.302;-122.946;2024-02-16T00:12:43;101016.84;;;9.59;100.00
51468;BME280;37545;45.302;-122.946;2024-02-16T00:15:11;101025.38;;;9.56;100.00
51468;BME280;37545;45.302;-122.946;2024-02-16T00:17:40;101028.66;;;9.52;100.00
51468;BME280;37545;45.302;-122.946;2024-02-16T00:20:09;101031.72;;;9.42;100.00
51468;BME280;37545;45.302;-122.946;2024-02-16T00:22:38;101039.22;;;9.36;100.00
51468;BME280;37545;45.302;-122.946;2024-02-16T00:25:08;101043.44;;;9.34;100.00
51468;BME280;37545;45.302;-122.946;2024-02-16T00:27:36;101048.50;;;9.31;100.00
51468;BME280;37545;45.302;-122.946;2024-02-16T00:30:08;101054.38;;;9.27;100.00
51468;BME280;37545;45.302;-122.946;2024-02-16T00:32:37;101062.75;;;9.21;100.00
51468;BME280;37545;45.302;-122.946;2024-02-16T00:35:06;101072.13;;;9.19;100.00
51468;BME280;37545;45.302;-122.946;2024-02-16T00:37:35;101067.75;;;9.16;100.00
51468;BME280;37545;45.302;-122.946;2024-02-16T00:40:08;101071.81;;;9.11;100.00
51468;BME280;37545;45.302;-122.946;2024-02-16T00:42:55;101070.69;;;9.05;100.00
51468;BME280;37545;45.302;-122.946;2024-02-16T00:45:34;101078.13;;;8.97;100.00
51468;BME280;37545;45.302;-122.946;2024-02-16T00:48:03;101080.41;;;8.89;100.00
51468;BME280;37545;45.302;-122.946;2024-02-16T00:50:33;101071.31;;;8.78;100.00
51468;BME280;37545;45.302;-122.946;2024-02-16T00:53:02;101072.75;;;8.71;100.00
51468;BME280;37545;45.302;-122.946;2024-02-16T00:55:33;101072.38;;;8.62;100.00
51468;BME280;37545;45.302;-122.946;2024-02-16T00:58:02;101078.84;;;8.52;100.00
51468;BME280;37545;45.302;-122.946;2024-02-16T01:00:32;101078.91;;;8.34;100.00
51468;BME280;37545;45.302;-122.946;2024-02-16T01:03:02;101069.06;;;8.26;100.00
51468;BME280;37545;45.302;-122.946;2024-02-16T01:05:31;101075.63;;;8.19;100.00
51468;BME280;37545;45.302;-122.946;2024-02-16T01:08:02;101073.69;;;8.13;100.00
51468;BME280;37545;45.302;-122.946;2024-02-16T01:10:30;101079.91;;;7.99;100.00
51468;BME280;37545;45.302;-122.946;2024-02-16T01:12:59;101082.47;;;7.80;100.00
51468;BME280;37545;45.302;-122.946;2024-02-16T01:15:31;101079.34;;;7.67;100.00
51468;BME280;37545;45.302;-122.946;2024-02-16T01:18:00;101088.59;;;7.64;100.00
51468;BME280;37545;45.302;-122.946;2024-02-16T01:20:28;101094.41;;;7.60;100.00
51468;BME280;37545;45.302;-122.946;2024-02-16T01:22:58;101089.91;;;7.55;100.00
51468;BME280;37545;45.302;-122.946;2024-02-16T01:25:26;101092.38;;;7.52;100.00
51468;BME280;37545;45.302;-122.946;2024-02-16T01:27:55;101084.28;;;7.45;100.00
51468;BME280;37545;45.302;-122.946;2024-02-16T01:30:24;101094.59;;;7.45;100.00
51468;BME280;37545;45.302;-122.946;2024-02-16T01:32:54;101093.47;;;7.40;100.00
51468;BME280;37545;45.302;-122.946;2024-02-16T01:35:22;101106.94;;;7.34;100.00
51468;BME280;37545;45.302;-122.946;2024-02-16T01:37:51;101105.75;;;7.27;100.00
51468;BME280;37545;45.302;-122.946;2024-02-16T01:40:20;101100.16;;;7.18;100.00
51468;BME280;37545;45.302;-122.946;2024-02-16T01:42:49;101105.00;;;7.12;100.00
51468;BME280;37545;45.302;-122.946;2024-02-16T01:45:17;101106.38;;;7.05;100.00
51468;BME280;37545;45.302;-122.946;2024-02-16T01:47:47;101110.59;;;7.03;100.00
51468;BME280;37545;45.302;-122.946;2024-02-16T01:50:19;101100.09;;;6.99;100.00
51468;BME280;37545;45.302;-122.946;2024-02-16T01:52:51;101109.25;;;6.93;100.00
51468;BME280;37545;45.302;-122.946;2024-02-16T01:55:21;101110.78;;;6.90;100.00
51468;BME280;37545;45.302;-122.946;2024-02-16T01:57:50;101115.06;;;6.89;100.00
51468;BME280;37545;45.302;-122.946;2024-02-16T02:00:18;101114.88;;;6.86;100.00
51468;BME280;37545;45.302;-122.946;2024-02-16T02:02:48;101118.28;;;6.85;100.00
51468;BME280;37545;45.302;-122.946;2024-02-16T02:05:21;101112.97;;;6.82;100.00
51468;BME280;37545;45.302;-122.946;2024-02-16T02:07:50;101122.28;;;6.80;100.00
51468;BME280;37545;45.302;-122.946;2024-02-16T02:10:19;101118.69;;;6.77;100.00
51468;BME280;37545;45.302;-122.946;2024-02-16T02:12:48;101126.25;;;6.74;100.00
51468;BME280;37545;45.302;-122.946;2024-02-16T02:15:19;101139.03;;;6.72;100.00
51468;BME280;37545;45.302;-122.946;2024-02-16T02:17:48;101148.25;;;6.68;100.00
51468;BME280;37545;45.302;-122.946;2024-02-16T02:20:17;101142.09;;;6.65;100.00
51468;BME280;37545;45.302;-122.946;2024-02-16T02:22:50;101148.84;;;6.63;100.00
51468;BME280;37545;45.302;-122.946;2024-02-16T02:25:21;101150.53;;;6.62;100.00
51468;BME280;37545;45.302;-122.946;2024-02-16T02:27:49;101146.91;;;6.59;100.00
51468;BME280;37545;45.302;-122.946;2024-02-16T02:30:18;101151.91;;;6.56;100.00
51468;BME280;37545;45.302;-122.946;2024-02-16T02:32:47;101162.97;;;6.55;100.00
51468;BME280;37545;45.302;-122.946;2024-02-16T02:35:19;101156.09;;;6.54;100.00
51468;BME280;37545;45.302;-122.946;2024-02-16T02:37:49;101161.22;;;6.54;100.00
51468;BME280;37545;45.302;-122.946;2024-02-16T02:40:18;101165.41;;;6.52;100.00
51468;BME280;37545;45.302;-122.946;2024-02-16T02:42:47;101161.00;;;6.49;100.00
51468;BME280;37545;45.302;-122.946;2024-02-16T02:45:16;101158.19;;;6.44;100.00
51468;BME280;37545;45.302;-122.946;2024-02-16T02:47:49;101159.94;;;6.45;100.00
51468;BME280;37545;45.302;-122.946;2024-02-16T02:50:19;101163.31;;;6.44;100.00
51468;BME280;37545;45.302;-122.946;2024-02-16T02:52:50;101166.66;;;6.43;100.00
51468;BME280;37545;45.302;-122.946;2024-02-16T02:55:18;101164.03;;;6.42;100.00
51468;BME280;37545;45.302;-122.946;2024-02-16T02:57:47;101164.59;;;6.36;100.00
51468;BME280;37545;45.302;-122.946;2024-02-16T03:00:16;101176.66;;;6.37;100.00
51468;BME280;37545;45.302;-122.946;2024-02-16T03:02:45;101178.25;;;6.35;100.00
51468;BME280;37545;45.302;-122.946;2024-02-16T03:05:15;101191.09;;;6.35;100.00
51468;BME280;37545;45.302;-122.946;2024-02-16T03:07:48;101181.59;;;6.34;100.00
51468;BME280;37545;45.302;-122.946;2024-02-16T03:10:18;101179.69;;;6.30;100.00
51468;BME280;37545;45.302;-122.946;2024-02-16T03:12:48;101181.31;;;6.28;100.00
51468;BME280;37545;45.302;-122.946;2024-02-16T03:15:17;101188.19;;;6.29;100.00
51468;BME280;37545;45.302;-122.946;2024-02-16T03:17:55;101181.69;;;6.19;100.00
51468;BME280;37545;45.302;-122.946;2024-02-16T03:20:24;101176.84;;;6.09;100.00
51468;BME280;37545;45.302;-122.946;2024-02-16T03:22:53;101180.31;;;6.10;100.00
51468;BME280;37545;45.302;-122.946;2024-02-16T03:25:24;101174.44;;;6.12;100.00
51468;BME280;37545;45.302;-122.946;2024-02-16T03:27:54;101175.19;;;6.10;100.00
51468;BME280;37545;45.302;-122.946;2024-02-16T03:30:23;101190.41;;;6.06;100.00
51468;BME280;37545;45.302;-122.946;2024-02-16T03:32:52;101208.47;;;6.08;100.00
51468;BME280;37545;45.302;-122.946;2024-02-16T03:35:21;101196.50;;;6.08;100.00
51468;BME280;37545;45.302;-122.946;2024-02-16T03:37:49;101199.28;;;6.12;100.00
51468;BME280;37545;45.302;-122.946;2024-02-16T03:40:25;101195.88;;;6.13;100.00
51468;BME280;37545;45.302;-122.946;2024-02-16T03:42:54;101199.44;;;6.15;100.00
51468;BME280;37545;45.302;-122.946;2024-02-16T03:45:23;101191.63;;;6.13;100.00
51468;BME280;37545;45.302;-122.946;2024-02-16T03:47:58;101197.47;;;6.11;100.00
51468;BME280;37545;45.302;-122.946;2024-02-16T03:50:27;101203.50;;;6.11;100.00
51468;BME280;37545;45.302;-122.946;2024-02-16T03:52:55;101199.09;;;6.08;100.00
51468;BME280;37545;45.302;-122.946;2024-02-16T03:55:26;101217.06;;;6.08;100.00
51468;BME280;37545;45.302;-122.946;2024-02-16T03:57:56;101220.19;;;6.03;100.00
51468;BME280;37545;45.302;-122.946;2024-02-16T04:00:24;101233.81;;;6.02;100.00
51468;BME280;37545;45.302;-122.946;2024-02-16T04:02:53;101242.25;;;5.99;100.00
51468;BME280;37545;45.302;-122.946;2024-02-16T04:05:22;101247.38;;;5.99;100.00
51468;BME280;37545;45.302;-122.946;2024-02-16T04:07:53;101242.09;;;5.96;100.00
51468;BME280;37545;45.302;-122.946;2024-02-16T04:10:26;101242.00;;;5.95;100.00
51468;BME280;37545;45.302;-122.946;2024-02-16T04:12:55;101253.75;;;5.91;100.00
51468;BME280;37545;45.302;-122.946;2024-02-16T04:15:24;101242.31;;;5.86;100.00
51468;BME280;37545;45.302;-122.946;2024-02-16T04:17:53;101240.91;;;5.91;100.00
51468;BME280;37545;45.302;-122.946;2024-02-16T04:20:24;101257.56;;;5.83;100.00
51468;BME280;37545;45.302;-122.946;2024-02-16T04:22:53;101270.41;;;5.83;100.00
51468;BME280;37545;45.302;-122.946;2024-02-16T04:25:22;101280.59;;;5.81;100.00
51468;BME280;37545;45.302;-122.946;2024-02-16T04:27:52;101276.34;;;5.82;100.00
51468;BME280;37545;45.302;-122.946;2024-02-16T04:30:21;101275.44;;;5.81;100.00
51468;BME280;37545;45.302;-122.946;2024-02-16T04:32:50;101277.13;;;5.81;100.00
51468;BME280;37545;45.302;-122.946;2024-02-16T04:35:19;101268.47;;;5.79;100.00
51468;BME280;37545;45.302;-122.946;2024-02-16T04:37:48;101260.75;;;5.79;100.00
51468;BME280;37545;45.302;-122.946;2024-02-16T04:40:17;101258.81;;;5.75;100.00
51468;BME280;37545;45.302;-122.946;2024-02-16T04:42:45;101280.06;;;5.72;100.00
51468;BME280;37545;45.302;-122.946;2024-02-16T04:45:18;101286.88;;;5.72;100.00
51468;BME280;37545;45.302;-122.946;2024-02-16T04:47:46;101290.06;;;5.67;100.00
51468;BME280;37545;45.302;-122.946;2024-02-16T04:50:15;101285.38;;;5.60;100.00
51468;BME280;37545;45.302;-122.946;2024-02-16T04:52:44;101295.66;;;5.60;100.00
51468;BME280;37545;45.302;-122.946;2024-02-16T04:55:12;101293.88;;;5.59;100.00
51468;BME280;37545;45.302;-122.946;2024-02-16T04:57:41;101296.91;;;5.52;100.00
51468;BME280;37545;45.302;-122.946;2024-02-16T05:00:09;101305.38;;;5.51;100.00
51468;BME280;37545;45.302;-122.946;2024-02-16T05:02:39;101318.09;;;5.50;100.00
51468;BME280;37545;45.302;-122.946;2024-02-16T05:05:12;101321.31;;;5.45;100.00
51468;BME280;37545;45.302;-122.946;2024-02-16T05:08:04;101327.94;;;5.42;100.00
51468;BME280;37545;45.302;-122.946;2024-02-16T05:10:32;101331.91;;;5.37;100.00
51468;BME280;37545;45.302;-122.946;2024-02-16T05:13:03;101341.31;;;5.36;100.00
51468;BME280;37545;45.302;-122.946;2024-02-16T05:15:32;101355.13;;;5.38;100.00
51468;BME280;37545;45.302;-122.946;2024-02-16T05:18:02;101363.88;;;5.42;100.00
51468;BME280;37545;45.302;-122.946;2024-02-16T05:20:31;101354.56;;;5.44;100.00
51468;BME280;37545;45.302;-122.946;2024-02-16T05:23:00;101350.44;;;5.46;100.00
51468;BME280;37545;45.302;-122.946;2024-02-16T05:25:29;101358.91;;;5.45;100.00
51468;BME280;37545;45.302;-122.946;2024-02-16T05:27:58;101362.28;;;5.44;100.00
51468;BME280;37545;45.302;-122.946;2024-02-16T05:30:27;101357.25;;;5.45;100.00
51468;BME280;37545;45.302;-122.946;2024-02-16T05:32:56;101367.59;;;5.47;100.00
51468;BME280;37545;45.302;-122.946;2024-02-16T05:35:27;101372.28;;;5.54;100.00
51468;BME280;37545;45.302;-122.946;2024-02-16T05:38:00;101368.06;;;5.55;100.00
51468;BME280;37545;45.302;-122.946;2024-02-16T05:40:33;101370.69;;;5.56;100.00
51468;BME280;37545;45.302;-122.946;2024-02-16T05:43:11;101362.38;;;5.60;100.00
51468;BME280;37545;45.302;-122.946;2024-02-16T05:45:40;101371.78;;;5.60;100.00
51468;BME280;37545;45.302;-122.946;2024-02-16T05:48:09;101371.59;;;5.57;100.00
51468;BME280;37545;45.302;-122.946;2024-02-16T05:50:46;101376.75;;;5.57;100.00
51468;BME280;37545;45.302;-122.946;2024-02-16T05:53:15;101379.38;;;5.58;100.00
51468;BME280;37545;45.302;-122.946;2024-02-16T05:55:43;101374.25;;;5.58;100.00
51468;BME280;37545;45.302;-122.946;2024-02-16T05:58:14;101389.66;;;5.58;100.00
51468;BME280;37545;45.302;-122.946;2024-02-16T06:00:42;101387.09;;;5.58;100.00
51468;BME280;37545;45.302;-122.946;2024-02-16T06:03:13;101393.91;;;5.58;100.00
51468;BME280;37545;45.302;-122.946;2024-02-16T06:05:43;101402.47;;;5.58;100.00
51468;BME280;37545;45.302;-122.946;2024-02-16T06:08:12;101401.50;;;5.56;100.00
51468;BME280;37545;45.302;-122.946;2024-02-16T06:10:41;101401.34;;;5.53;100.00
51468;BME280;37545;45.302;-122.946;2024-02-16T06:13:10;101403.72;;;5.50;100.00
51468;BME280;37545;45.302;-122.946;2024-02-16T06:15:39;101402.53;;;5.45;100.00
51468;BME280;37545;45.302;-122.946;2024-02-16T06:18:08;101397.22;;;5.42;100.00
51468;BME280;37545;45.302;-122.946;2024-02-16T06:20:36;101373.16;;;5.40;100.00
51468;BME280;37545;45.302;-122.946;2024-02-16T06:23:12;101365.44;;;5.40;100.00
51468;BME280;37545;45.302;-122.946;2024-02-16T06:25:43;101354.19;;;5.38;100.00
51468;BME280;37545;45.302;-122.946;2024-02-16T06:28:12;101349.00;;;5.36;100.00
51468;BME280;37545;45.302;-122.946;2024-02-16T06:30:40;101357.56;;;5.37;100.00
51468;BME280;37545;45.302;-122.946;2024-02-16T06:33:09;101361.34;;;5.29;100.00
51468;BME280;37545;45.302;-122.946;2024-02-16T06:35:38;101392.78;;;5.24;100.00
51468;BME280;37545;45.302;-122.946;2024-02-16T06:38:08;101396.09;;;5.23;100.00
51468;BME280;37545;45.302;-122.946;2024-02-16T06:40:37;101403.03;;;5.24;100.00
51468;BME280;37545;45.302;-122.946;2024-02-16T06:43:06;101403.69;;;5.22;100.00
51468;BME280;37545;45.302;-122.946;2024-02-16T06:45:35;101418.22;;;5.21;100.00
51468;BME280;37545;45.302;-122.946;2024-02-16T06:48:04;101431.63;;;5.17;100.00
51468;BME280;37545;45.302;-122.946;2024-02-16T06:50:32;101453.06;;;5.18;100.00
51468;BME280;37545;45.302;-122.946;2024-02-16T06:53:01;101472.69;;;5.17;100.00
51468;BME280;37545;45.302;-122.946;2024-02-16T06:55:31;101476.25;;;5.19;100.00
51468;BME280;37545;45.302;-122.946;2024-02-16T06:58:00;101471.22;;;5.21;100.00
51468;BME280;37545;45.302;-122.946;2024-02-16T07:00:29;101466.38;;;5.25;100.00
51468;BME280;37545;45.302;-122.946;2024-02-16T07:02:58;101459.66;;;5.28;100.00
51468;BME280;37545;45.302;-122.946;2024-02-16T07:05:26;101454.53;;;5.28;100.00
51468;BME280;37545;45.302;-122.946;2024-02-16T07:07:57;101458.06;;;5.30;100.00
51468;BME280;37545;45.302;-122.946;2024-02-16T07:10:26;101458.06;;;5.30;100.00
51468;BME280;37545;45.302;-122.946;2024-02-16T07:12:57;101464.97;;;5.31;100.00
51468;BME280;37545;45.302;-122.946;2024-02-16T07:15:25;101463.00;;;5.27;100.00
51468;BME280;37545;45.302;-122.946;2024-02-16T07:17:54;101475.06;;;5.28;100.00
51468;BME280;37545;45.302;-122.946;2024-02-16T07:20:23;101476.81;;;5.29;100.00
51468;BME280;37545;45.302;-122.946;2024-02-16T07:22:52;101477.81;;;5.31;100.00
51468;BME280;37545;45.302;-122.946;2024-02-16T07:25:21;101468.53;;;5.33;100.00
51468;BME280;37545;45.302;-122.946;2024-02-16T07:27:49;101471.09;;;5.33;100.00
51468;BME280;37545;45.302;-122.946;2024-02-16T07:30:20;101470.09;;;5.31;100.00
51468;BME280;37545;45.302;-122.946;2024-02-16T07:32:49;101463.09;;;5.28;100.00
51468;BME280;37545;45.302;-122.946;2024-02-16T07:35:18;101464.63;;;5.24;100.00
51468;BME280;37545;45.302;-122.946;2024-02-16T07:37:50;101449.13;;;5.23;100.00
51468;BME280;37545;45.302;-122.946;2024-02-16T07:40:20;101444.56;;;5.19;100.00
51468;BME280;37545;45.302;-122.946;2024-02-16T07:42:49;101442.13;;;5.20;100.00
51468;BME280;37545;45.302;-122.946;2024-02-16T07:45:18;101442.59;;;5.15;100.00
51468;BME280;37545;45.302;-122.946;2024-02-16T07:47:48;101469.75;;;5.11;100.00
51468;BME280;37545;45.302;-122.946;2024-02-16T07:50:19;101472.31;;;5.11;100.00
51468;BME280;37545;45.302;-122.946;2024-02-16T07:52:48;101474.09;;;5.12;100.00
51468;BME280;37545;45.302;-122.946;2024-02-16T07:55:21;101477.47;;;5.11;100.00
51468;BME280;37545;45.302;-122.946;2024-02-16T07:57:50;101483.47;;;5.12;100.00
51468;BME280;37545;45.302;-122.946;2024-02-16T08:00:19;101482.59;;;5.11;100.00
51468;BME280;37545;45.302;-122.946;2024-02-16T08:02:50;101486.13;;;5.13;100.00
51468;BME280;37545;45.302;-122.946;2024-02-16T08:05:18;101486.22;;;5.15;100.00
51468;BME280;37545;45.302;-122.946;2024-02-16T08:07:48;101490.56;;;5.16;100.00
51468;BME280;37545;45.302;-122.946;2024-02-16T08:10:19;101500.22;;;5.20;100.00
51468;BME280;37545;45.302;-122.946;2024-02-16T08:12:49;101501.19;;;5.22;100.00
51468;BME280;37545;45.302;-122.946;2024-02-16T08:15:17;101502.13;;;5.22;100.00
51468;BME280;37545;45.302;-122.946;2024-02-16T08:17:52;101494.31;;;5.21;100.00
51468;BME280;37545;45.302;-122.946;2024-02-16T08:20:21;101503.69;;;5.20;100.00
51468;BME280;37545;45.302;-122.946;2024-02-16T08:22:50;101511.38;;;5.20;100.00
51468;BME280;37545;45.302;-122.946;2024-02-16T08:25:18;101510.19;;;5.15;100.00
51468;BME280;37545;45.302;-122.946;2024-02-16T08:27:49;101512.75;;;5.15;100.00
51468;BME280;37545;45.302;-122.946;2024-02-16T08:30:18;101510.09;;;5.14;100.00
51468;BME280;37545;45.302;-122.946;2024-02-16T08:32:47;101511.78;;;5.13;100.00
51468;BME280;37545;45.302;-122.946;2024-02-16T08:35:17;101508.31;;;5.13;100.00
51468;BME280;37545;45.302;-122.946;2024-02-16T08:37:48;101506.66;;;5.13;100.00
51468;BME280;37545;45.302;-122.946;2024-02-16T08:40:17;101473.69;;;5.06;100.00
51468;BME280;37545;45.302;-122.946;2024-02-16T08:42:46;101477.47;;;5.11;100.00
51468;BME280;37545;45.302;-122.946;2024-02-16T08:45:14;101469.47;;;5.07;100.00
51468;BME280;37545;45.302;-122.946;2024-02-16T08:47:44;101470.16;;;5.04;100.00
51468;BME280;37545;45.302;-122.946;2024-02-16T08:50:15;101479.34;;;5.00;100.00
51468;BME280;37545;45.302;-122.946;2024-02-16T08:52:45;101484.34;;;4.99;100.00
51468;BME280;37545;45.302;-122.946;2024-02-16T08:55:14;101483.38;;;4.97;100.00
51468;BME280;37545;45.302;-122.946;2024-02-16T08:57:42;101477.19;;;4.93;100.00
51468;BME280;37545;45.302;-122.946;2024-02-16T09:00:16;101484.56;;;4.89;100.00
51468;BME280;37545;45.302;-122.946;2024-02-16T09:02:44;101486.16;;;4.87;100.00
51468;BME280;37545;45.302;-122.946;2024-02-16T09:05:13;101501.53;;;4.87;100.00
51468;BME280;37545;45.302;-122.946;2024-02-16T09:07:42;101501.72;;;4.76;100.00
51468;BME280;37545;45.302;-122.946;2024-02-16T09:10:12;101513.19;;;4.81;100.00
51468;BME280;37545;45.302;-122.946;2024-02-16T09:12:41;101515.75;;;4.81;100.00
51468;BME280;37545;45.302;-122.946;2024-02-16T09:15:10;101523.31;;;4.80;100.00
51468;BME280;37545;45.302;-122.946;2024-02-16T09:17:39;101514.75;;;4.79;100.00
51468;BME280;37545;45.302;-122.946;2024-02-16T09:20:08;101514.84;;;4.81;100.00
51468;BME280;37545;45.302;-122.946;2024-02-16T09:22:40;101521.56;;;4.79;100.00
51468;BME280;37545;45.302;-122.946;2024-02-16T09:25:09;101525.78;;;4.78;100.00
51468;BME280;37545;45.302;-122.946;2024-02-16T09:27:39;101539.50;;;4.79;100.00
51468;BME280;37545;45.302;-122.946;2024-02-16T09:30:12;101538.59;;;4.78;100.00
51468;BME280;37545;45.302;-122.946;2024-02-16T09:32:41;101539.41;;;4.77;100.00
51468;BME280;37545;45.302;-122.946;2024-02-16T09:35:10;101547.09;;;4.77;100.00
51468;BME280;37545;45.302;-122.946;2024-02-16T09:37:46;101542.66;;;4.75;100.00
51468;BME280;37545;45.302;-122.946;2024-02-16T09:40:15;101542.53;;;4.73;100.00
51468;BME280;37545;45.302;-122.946;2024-02-16T09:42:49;101557.16;;;4.74;100.00
51468;BME280;37545;45.302;-122.946;2024-02-16T09:45:18;101563.16;;;4.75;100.00
51468;BME280;37545;45.302;-122.946;2024-02-16T09:47:46;101573.31;;;4.73;100.00
51468;BME280;37545;45.302;-122.946;2024-02-16T09:50:15;101606.44;;;4.70;100.00
51468;BME280;37545;45.302;-122.946;2024-02-16T09:52:47;101626.84;;;4.69;100.00
51468;BME280;37545;45.302;-122.946;2024-02-16T09:55:17;101622.72;;;4.71;100.00
51468;BME280;37545;45.302;-122.946;2024-02-16T09:57:57;101619.47;;;4.73;100.00
51468;BME280;37545;45.302;-122.946;2024-02-16T10:00:28;101559.72;;;4.74;100.00
51468;BME280;37545;45.302;-122.946;2024-02-16T10:02:57;101513.34;;;4.71;100.00
51468;BME280;37545;45.302;-122.946;2024-02-16T10:05:25;101542.94;;;4.66;100.00
51468;BME280;37545;45.302;-122.946;2024-02-16T10:07:57;101560.00;;;4.66;100.00
51468;BME280;37545;45.302;-122.946;2024-02-16T10:10:26;101551.63;;;4.68;100.00
51468;BME280;37545;45.302;-122.946;2024-02-16T10:13:04;101561.00;;;4.68;100.00
51468;BME280;37545;45.302;-122.946;2024-02-16T10:15:33;101556.31;;;4.62;100.00
51468;BME280;37545;45.302;-122.946;2024-02-16T10:18:03;101562.75;;;4.69;100.00
51468;BME280;37545;45.302;-122.946;2024-02-16T10:20:35;101547.47;;;4.70;100.00
51468;BME280;37545;45.302;-122.946;2024-02-16T10:23:08;101550.03;;;4.70;100.00
51468;BME280;37545;45.302;-122.946;2024-02-16T10:25:38;101571.44;;;4.71;100.00
51468;BME280;37545;45.302;-122.946;2024-02-16T10:28:10;101571.56;;;4.72;100.00
51468;BME280;37545;45.302;-122.946;2024-02-16T10:30:41;101568.19;;;4.73;100.00
51468;BME280;37545;45.302;-122.946;2024-02-16T10:33:11;101555.47;;;4.75;100.00
51468;BME280;37545;45.302;-122.946;2024-02-16T10:35:41;101550.22;;;4.73;100.00
51468;BME280;37545;45.302;-122.946;2024-02-16T10:38:12;101563.94;;;4.74;100.00
51468;BME280;37545;45.302;-122.946;2024-02-16T10:40:47;101568.88;;;4.71;100.00
51468;BME280;37545;45.302;-122.946;2024-02-16T10:43:18;101574.88;;;4.71;100.00
51468;BME280;37545;45.302;-122.946;2024-02-16T10:45:49;101572.44;;;4.73;100.00
51468;BME280;37545;45.302;-122.946;2024-02-16T10:48:19;101571.63;;;4.74;100.00
51468;BME280;37545;45.302;-122.946;2024-02-16T10:50:48;101567.41;;;4.74;100.00
51468;BME280;37545;45.302;-122.946;2024-02-16T10:53:22;101565.81;;;4.76;100.00
51468;BME280;37545;45.302;-122.946;2024-02-16T10:55:56;101570.94;;;4.76;100.00
51468;BME280;37545;45.302;-122.946;2024-02-16T10:58:27;101575.09;;;4.74;100.00
51468;BME280;37545;45.302;-122.946;2024-02-16T11:00:56;101578.56;;;4.75;100.00
51468;BME280;37545;45.302;-122.946;2024-02-16T11:03:26;101581.19;;;4.76;100.00
51468;BME280;37545;45.302;-122.946;2024-02-16T11:05:56;101587.00;;;4.74;100.00
51468;BME280;37545;45.302;-122.946;2024-02-16T11:08:28;101573.31;;;4.73;100.00
51468;BME280;37545;45.302;-122.946;2024-02-16T11:11:01;101564.84;;;4.74;100.00
51468;BME280;37545;45.302;-122.946;2024-02-16T11:13:34;101571.94;;;4.78;100.00
51468;BME280;37545;45.302;-122.946;2024-02-16T11:16:08;101578.06;;;4.80;100.00
51468;BME280;37545;45.302;-122.946;2024-02-16T11:18:41;101580.63;;;4.80;100.00
51468;BME280;37545;45.302;-122.946;2024-02-16T11:21:12;101583.88;;;4.78;100.00
51468;BME280;37545;45.302;-122.946;2024-02-16T11:23:42;101585.66;;;4.79;100.00
51468;BME280;37545;45.302;-122.946;2024-02-16T11:26:13;101582.19;;;4.78;100.00
51468;BME280;37545;45.302;-122.946;2024-02-16T11:28:45;101588.81;;;4.75;100.00
51468;BME280;37545;45.302;-122.946;2024-02-16T11:31:14;101590.50;;;4.74;100.00
51468;BME280;37545;45.302;-122.946;2024-02-16T11:33:46;101598.84;;;4.72;100.00
51468;BME280;37545;45.302;-122.946;2024-02-16T11:36:16;101591.75;;;4.68;100.00
51468;BME280;37545;45.302;-122.946;2024-02-16T11:38:45;101585.72;;;4.67;100.00
51468;BME280;37545;45.302;-122.946;2024-02-16T11:41:15;101587.69;;;4.71;100.00
51468;BME280;37545;45.302;-122.946;2024-02-16T11:43:46;101591.53;;;4.65;100.00
51468;BME280;37545;45.302;-122.946;2024-02-16T11:46:15;101590.44;;;4.61;100.00
51468;BME280;37545;45.302;-122.946;2024-02-16T11:48:44;101598.91;;;4.60;100.00
51468;BME280;37545;45.302;-122.946;2024-02-16T11:51:15;101601.41;;;4.58;100.00
51468;BME280;37545;45.302;-122.946;2024-02-16T11:53:45;101611.53;;;4.57;100.00
51468;BME280;37545;45.302;-122.946;2024-02-16T11:56:22;101613.22;;;4.56;100.00
51468;BME280;37545;45.302;-122.946;2024-02-16T11:58:53;101610.53;;;4.55;100.00
51468;BME280;37545;45.302;-122.946;2024-02-16T12:01:22;101607.84;;;4.53;100.00
51468;BME280;37545;45.302;-122.946;2024-02-16T12:03:53;101604.22;;;4.50;100.00
51468;BME280;37545;45.302;-122.946;2024-02-16T12:06:23;101591.41;;;4.50;100.00
51468;BME280;37545;45.302;-122.946;2024-02-16T12:08:52;101595.66;;;4.49;100.00
51468;BME280;37545;45.302;-122.946;2024-02-16T12:11:20;101592.28;;;4.50;100.00
51468;BME280;37545;45.302;-122.946;2024-02-16T12:13:49;101589.41;;;4.46;100.00
51468;BME280;37545;45.302;-122.946;2024-02-16T12:16:21;101578.28;;;4.45;100.00
51468;BME280;37545;45.302;-122.946;2024-02-16T12:18:50;101570.59;;;4.45;100.00
51468;BME280;37545;45.302;-122.946;2024-02-16T12:21:19;101567.91;;;4.44;100.00
51468;BME280;37545;45.302;-122.946;2024-02-16T12:23:47;101571.38;;;4.44;100.00
51468;BME280;37545;45.302;-122.946;2024-02-16T12:26:17;101568.72;;;4.43;100.00
51468;BME280;37545;45.302;-122.946;2024-02-16T12:28:48;101570.47;;;4.44;100.00
51468;BME280;37545;45.302;-122.946;2024-02-16T12:31:22;101561.59;;;4.38;100.00
51468;BME280;37545;45.302;-122.946;2024-02-16T12:33:52;101567.19;;;4.33;100.00